CheckWX is a tool to help pilots better visualize weather data.  It is not intended as a substitute for an official pre-flight weather briefing.

06:49:02 UTC

EHKD METAR
De Kooy Airport
Den Helder, The Netherlands
Current

15 mins ago

EHKD 210634Z AUTO 32012KT 280V020 3600 R03/P3000N BR OVC002 11/11 Q1012 AMB 33013KT 4000 BR BKN002 BKN003 TEMPO 1500 -DZ BKN001
Observed
May-21 @ 06:34 UTC
Wind
  • 320° at 12 KTS
Visibility
3,605 meters
Flight Rules
LIFR
Conditions
Mist, Mist
Cloud Levels
  • Overcast at 200' AGL
  • Broken at 200' AGL
  • Broken at 300' AGL
Temperature
11°C / 52°F
Dewpoint
11°C / 52°F
Humidity
100%
Altimeter
29.88" Hg
Pressure
1011.92 hPa
Previous

24 mins ago

EHKD 210625Z AUTO 33011KT 280V020 5000 BR OVC002 11/11 Q1012 AMB 33013KT 4000 BR BKN002 BKN003 TEMPO 1500 -DZ BKN001
Observed
May-21 @ 06:25 UTC
Wind
  • 330° at 11 KTS
Visibility
5,005 meters
Flight Rules
LIFR
Conditions
Mist, Mist
Cloud Levels
  • Overcast at 200' AGL
  • Broken at 200' AGL
  • Broken at 300' AGL
Temperature
11°C / 52°F
Dewpoint
11°C / 52°F
Humidity
100%
Altimeter
29.88" Hg
Pressure
1011.92 hPa
Previous

52 mins ago

EHKD 210557Z AUTO 32014KT 280V010 7000 BR OVC003 11/11 Q1012 YLO 33013KT 2500 BR BKN002 BKN003 TEMPO 1500 -DZ BKN001
Observed
May-21 @ 05:57 UTC
Wind
  • 320° at 14 KTS
Visibility
7,001 meters
Flight Rules
LIFR
Conditions
Mist, Mist
Cloud Levels
  • Overcast at 300' AGL
  • Broken at 200' AGL
  • Broken at 300' AGL
Temperature
11°C / 52°F
Dewpoint
11°C / 52°F
Humidity
100%
Altimeter
29.88" Hg
Pressure
1011.92 hPa